Hauptseite
METAR-TAF:

METAR-TAF

Flughäfen :

Clyde, Nunavut, Kanada

Breite: 70-29N, Länge: 068-31W, Höhe: 25 m

Beobachtung

Neuester Wetterbericht von vor 11 Minuten, um 19:00 UTC
Wind 4 kt aus Südost, variierte zwischen Ost und Süd
Temperatur -30°C
Luftfeuchtigkeit 68%
Luftdruck 1006 hPa
Sichtweite: 40.2 km
Leicht bewölkt in der Höhe von 10000 ft
Aufgelockert bewölkt in der Höhe von 25000 ft

METAR: CYCY 251900Z 13004KT 100V170 25SM FEW100 SCT250 M30/M34 A2970 RMK AC1CI4 AC TR SLP063

Zeit: 14:11 (19:11 UTC)

Prognose

Neuester Wetterbericht von vor 30 Minuten, um 18:41 UTC
Gültige Prognose vom 25 um 19 UTC bis 26 um 07 UTC
Wind 6 kt aus Süd/Südost
Sichtweite: 10 km
Leicht bewölkt in der Höhe von 10000 ft
Durchbrochene Bewölkung in der Höhe von 24000 ft

TAF: CYCY 251841Z 2519/2607 16006KT P6SM FEW100 BKN240 RMK FCST BASED ON AUTO OBS. NXT FCST BY 260100Z

Wetterbeobachtungen und Prognosen von mehr als 4000 Flughäfen (METAR und TAF Bericht).

Die verfügbaren Stationen werden durch gelbe und rote Markierungen auf der Karte dargestellt.

Führen Sie die Maus auf sie, um den Namen der Station zu sehen.

Darauf klicken, um die Beobachtung von Wetterbeobachtungen und Prognosen zu sehen.

Um die Karte zu ändern : klicken Sie auf den grünen Tasten mit einem schwarzen Kreuz Zum Vergrößern, auf den grünen Button mit einem Gedankenstrich zu verkleinern, oder auf die grünen Pfeile für benachbarte Karten.


METAR-TAF: